Time;durP1;ratioP1;P1;durP2;ratioP2;P2;SDS_P1;SDS_P2;PMS_P1;PMS_P2;Temp;Humidity;BMP_temperature;BMP_pressure;BME280_temperature;BME280_humidity;BME280_pressure;Samples;Min_cycle;Max_cycle;Signal;HPM_P1;HPM_P2
2022/02/19 00:01:42;;;;;;;8.20;4.27;;;9.30;76.60;;;;;;4961431;28;20449;-87
2022/02/19 00:04:09;;;;;;;6.47;3.07;;;9.20;76.40;;;;;;4961260;28;20469;-87
2022/02/19 00:06:38;;;;;;;7.73;2.90;;;9.20;76.30;;;;;;4959441;28;20437;-87
2022/02/19 00:09:05;;;;;;;7.87;2.40;;;9.20;76.10;;;;;;4959652;29;20472;-89
2022/02/19 00:11:32;;;;;;;8.37;2.40;;;9.20;76.30;;;;;;4958414;29;20448;-89
2022/02/19 00:13:59;;;;;;;13.03;2.83;;;9.20;75.60;;;;;;4958019;28;20757;-88
2022/02/19 00:16:26;;;;;;;3.93;1.80;;;9.20;75.80;;;;;;4958161;29;20445;-88
2022/02/19 00:18:52;;;;;;;5.13;1.90;;;9.10;75.40;;;;;;4957683;29;20437;-90
2022/02/19 00:21:19;;;;;;;6.40;1.70;;;9.20;74.20;;;;;;4957188;29;20970;-89
2022/02/19 00:23:47;;;;;;;6.50;2.47;;;9.20;74.30;;;;;;4957765;28;20520;-89
2022/02/19 00:26:14;;;;;;;4.97;2.53;;;9.20;73.90;;;;;;4956726;29;20507;-88
2022/02/19 00:28:41;;;;;;;5.70;1.63;;;9.10;74.50;;;;;;4956640;28;20468;-87
2022/02/19 00:31:07;;;;;;;6.10;2.50;;;9.10;74.40;;;;;;4957222;28;20452;-89
2022/02/19 00:33:34;;;;;;;7.13;2.13;;;9.20;74.50;;;;;;4957198;28;21022;-88
2022/02/19 00:36:01;;;;;;;4.13;1.50;;;9.10;74.20;;;;;;4956737;29;20483;-87
2022/02/19 00:38:28;;;;;;;6.70;3.23;;;9.20;74.20;;;;;;4956843;28;20510;-89
2022/02/19 00:40:57;;;;;;;12.37;2.57;;;9.10;74.40;;;;;;4956457;28;20449;-87
2022/02/19 00:43:23;;;;;;;4.93;2.00;;;9.10;75.10;;;;;;4956539;28;20495;-89
2022/02/19 00:45:50;;;;;;;6.63;2.23;;;9.10;75.40;;;;;;4956091;29;20463;-88
2022/02/19 00:48:17;;;;;;;8.53;1.87;;;9.10;75.00;;;;;;4956384;28;20877;-89
2022/02/19 00:50:46;;;;;;;5.27;1.80;;;9.10;73.70;;;;;;4956305;29;20449;-89
2022/02/19 00:53:12;;;;;;;5.93;2.40;;;9.10;73.50;;;;;;4957449;28;20564;-90
2022/02/19 00:55:39;;;;;;;9.87;3.67;;;9.10;73.60;;;;;;4962821;28;20508;-88
2022/02/19 00:58:08;;;;;;;3.87;1.60;;;9.10;73.40;;;;;;4978172;28;20449;-88
2022/02/19 01:00:34;;;;;;;4.53;1.90;;;9.10;73.00;;;;;;4963715;28;20452;-88
2022/02/19 01:03:01;;;;;;;6.73;1.87;;;9.10;72.00;;;;;;4962675;28;20488;-89
2022/02/19 01:05:30;;;;;;;6.37;1.70;;;9.20;73.30;;;;;;4958162;29;20455;-90
2022/02/19 01:07:57;;;;;;;5.57;1.53;;;9.10;72.90;;;;;;4968671;29;20460;-88
2022/02/19 01:10:24;;;;;;;10.87;3.23;;;9.10;73.40;;;;;;4977260;28;20666;-88
2022/02/19 01:12:50;;;;;;;7.03;1.80;;;9.10;72.80;;;;;;4972654;28;20461;-88
2022/02/19 01:15:18;;;;;;;6.50;2.07;;;9.10;73.40;;;;;;4957792;28;20968;-88
2022/02/19 01:17:46;;;;;;;4.13;1.40;;;9.10;73.40;;;;;;4956368;29;20466;-88
2022/02/19 01:20:12;;;;;;;6.17;1.80;;;9.10;72.70;;;;;;4955863;28;20444;-89
2022/02/19 01:22:41;;;;;;;4.57;1.60;;;9.10;72.80;;;;;;4956085;28;20844;-88
2022/02/19 01:25:10;;;;;;;6.73;2.20;;;9.10;72.70;;;;;;4956918;29;20461;-88
2022/02/19 01:27:37;;;;;;;3.50;1.30;;;9.10;72.90;;;;;;4956439;28;20544;-88
2022/02/19 01:30:05;;;;;;;3.67;1.50;;;9.00;72.40;;;;;;4956249;28;20459;-89
2022/02/19 01:32:34;;;;;;;4.83;1.50;;;9.00;72.30;;;;;;4956206;28;20449;-87
2022/02/19 01:35:01;;;;;;;5.73;2.17;;;9.00;71.70;;;;;;4955753;29;20456;-88
2022/02/19 01:37:28;;;;;;;7.27;1.90;;;9.10;71.40;;;;;;4955387;29;20449;-89
2022/02/19 01:39:54;;;;;;;7.73;2.37;;;9.00;71.50;;;;;;4954865;28;20460;-88
2022/02/19 01:42:21;;;;;;;6.00;2.73;;;9.00;71.30;;;;;;4955384;28;20862;-89
2022/02/19 01:44:51;;;;;;;3.90;1.70;;;9.00;71.70;;;;;;4955012;28;20848;-89
2022/02/19 01:47:18;;;;;;;2.43;1.33;;;9.00;70.00;;;;;;4955283;29;20956;-88
2022/02/19 01:49:46;;;;;;;3.53;2.07;;;9.00;69.80;;;;;;4955418;28;20444;-87
2022/02/19 01:52:16;;;;;;;6.00;1.40;;;9.00;70.00;;;;;;4955788;28;20553;-88
2022/02/19 01:54:43;;;;;;;3.70;1.50;;;8.90;69.20;;;;;;4955942;28;20476;-89
2022/02/19 01:57:10;;;;;;;2.53;1.20;;;9.00;69.10;;;;;;4955187;29;20446;-87
2022/02/19 01:59:40;;;;;;;7.87;1.70;;;8.90;69.10;;;;;;4961429;28;20446;-87
2022/02/19 02:02:07;;;;;;;5.63;1.77;;;8.90;68.10;;;;;;4962805;28;20449;-88
2022/02/19 02:04:34;;;;;;;4.40;2.13;;;8.90;68.50;;;;;;4957839;28;20490;-88
2022/02/19 02:07:03;;;;;;;7.67;1.70;;;8.90;67.60;;;;;;4965379;28;20512;-87
2022/02/19 02:09:31;;;;;;;5.97;1.50;;;8.90;68.00;;;;;;4974581;28;20428;-88
2022/02/19 02:11:58;;;;;;;3.77;1.70;;;8.90;67.80;;;;;;4972979;28;20447;-88
2022/02/19 02:14:25;;;;;;;7.20;2.10;;;8.80;67.80;;;;;;4974223;28;20465;-87
2022/02/19 02:16:51;;;;;;;6.00;1.70;;;8.80;67.30;;;;;;4971211;29;20453;-87
2022/02/19 02:19:18;;;;;;;4.63;2.13;;;8.80;67.30;;;;;;4958125;28;20449;-87
2022/02/19 02:21:46;;;;;;;4.20;2.10;;;8.80;67.20;;;;;;4959070;28;20453;-89
2022/02/19 02:24:13;;;;;;;6.43;1.50;;;8.80;67.60;;;;;;4970751;23;20505;-86
2022/02/19 02:26:40;;;;;;;5.40;1.80;;;8.70;67.60;;;;;;4954275;29;20464;-86
2022/02/19 02:29:07;;;;;;;6.97;2.20;;;8.70;67.40;;;;;;4966482;28;20459;-85
2022/02/19 02:31:34;;;;;;;3.67;1.47;;;8.70;66.70;;;;;;4969111;29;20449;-86
2022/02/19 02:34:01;;;;;;;3.57;1.73;;;8.70;66.60;;;;;;4955136;28;20468;-86
2022/02/19 02:36:27;;;;;;;4.53;1.37;;;8.70;67.20;;;;;;4960156;28;20460;-85
2022/02/19 02:38:57;;;;;;;7.40;1.93;;;8.70;66.80;;;;;;4958243;29;20444;-86
2022/02/19 02:41:24;;;;;;;8.67;2.00;;;8.60;67.50;;;;;;4956495;29;20453;-86
2022/02/19 02:43:51;;;;;;;5.10;1.80;;;8.60;67.50;;;;;;4958240;28;20499;-86
2022/02/19 02:46:18;;;;;;;6.27;1.70;;;8.60;67.10;;;;;;4959381;28;20441;-86
2022/02/19 02:48:44;;;;;;;4.47;1.80;;;8.60;67.30;;;;;;4955569;28;20452;-87
2022/02/19 02:51:11;;;;;;;4.90;1.87;;;8.60;67.40;;;;;;4956013;28;20959;-86
2022/02/19 02:53:38;;;;;;;4.73;1.90;;;8.50;68.00;;;;;;4959148;28;20480;-86
2022/02/19 02:56:06;;;;;;;3.77;1.77;;;8.50;68.00;;;;;;4972676;29;20448;-86
2022/02/19 02:58:33;;;;;;;3.03;2.00;;;8.50;68.70;;;;;;4978943;28;20452;-86
2022/02/19 03:01:00;;;;;;;6.10;1.53;;;8.50;67.70;;;;;;4977502;28;20471;-86
2022/02/19 03:03:27;;;;;;;10.37;2.13;;;8.40;68.60;;;;;;4959111;28;20492;-86
2022/02/19 03:05:53;;;;;;;6.53;1.87;;;8.40;68.50;;;;;;4958392;28;20817;-86
2022/02/19 03:08:20;;;;;;;5.53;2.23;;;8.40;69.00;;;;;;4959472;28;20456;-87
2022/02/19 03:10:47;;;;;;;6.80;1.93;;;8.40;68.80;;;;;;4958518;28;20461;-87
2022/02/19 03:13:15;;;;;;;7.23;1.70;;;8.40;68.80;;;;;;4958874;28;20453;-87
2022/02/19 03:15:41;;;;;;;3.30;1.97;;;8.40;69.00;;;;;;4964536;28;20464;-85
2022/02/19 03:18:09;;;;;;;8.60;2.03;;;8.40;68.90;;;;;;4961584;28;20445;-85
2022/02/19 03:20:39;;;;;;;6.57;2.23;;;8.30;69.00;;;;;;4967723;28;20493;-85
2022/02/19 03:23:06;;;;;;;5.03;1.40;;;8.30;69.30;;;;;;4974753;28;20472;-85
2022/02/19 03:25:33;;;;;;;4.17;1.70;;;8.30;69.30;;;;;;4960797;28;20467;-85
2022/02/19 03:28:00;;;;;;;7.73;1.57;;;8.30;68.40;;;;;;4959801;29;20460;-85
2022/02/19 03:30:28;;;;;;;5.30;1.60;;;8.30;67.50;;;;;;4958218;29;20457;-85
2022/02/19 03:32:55;;;;;;;3.63;1.40;;;8.30;67.60;;;;;;4958366;28;20444;-85
2022/02/19 03:35:22;;;;;;;5.43;1.70;;;8.30;67.40;;;;;;4974113;28;20449;-83
2022/02/19 03:37:48;;;;;;;2.23;1.20;;;8.30;67.70;;;;;;4979608;28;20437;-85
2022/02/19 03:40:15;;;;;;;4.50;1.60;;;8.30;68.10;;;;;;4961325;29;20452;-85
2022/02/19 03:42:43;;;;;;;6.60;1.90;;;8.20;68.50;;;;;;4958258;29;20453;-85
2022/02/19 03:45:12;;;;;;;3.97;1.30;;;8.20;69.60;;;;;;4962819;28;20495;-84
2022/02/19 03:47:41;;;;;;;7.43;1.63;;;8.20;68.80;;;;;;4980805;28;20429;-84
2022/02/19 03:50:09;;;;;;;5.03;1.40;;;8.20;68.60;;;;;;4961381;28;20449;-86
2022/02/19 03:52:37;;;;;;;5.47;2.00;;;8.10;67.80;;;;;;4978923;28;20431;-85
2022/02/19 03:55:04;;;;;;;3.10;1.47;;;8.10;68.40;;;;;;4976760;28;20460;-85
2022/02/19 03:57:31;;;;;;;9.20;2.00;;;8.10;68.90;;;;;;4963257;28;20932;-85
2022/02/19 03:59:58;;;;;;;2.90;1.17;;;8.00;68.50;;;;;;4960575;28;20449;-85
2022/02/19 04:02:25;;;;;;;8.83;2.17;;;8.00;68.90;;;;;;4956911;28;20449;-86
2022/02/19 04:04:53;;;;;;;6.67;1.27;;;8.00;68.90;;;;;;4966184;28;20499;-85
2022/02/19 04:07:19;;;;;;;5.20;2.70;;;7.90;69.20;;;;;;4974154;29;20456;-86
2022/02/19 04:09:46;;;;;;;6.40;2.57;;;7.90;69.40;;;;;;4960902;29;20574;-86
2022/02/19 04:12:13;;;;;;;8.03;3.70;;;7.90;69.50;;;;;;4958354;28;20456;-86
2022/02/19 04:14:39;;;;;;;4.57;2.07;;;7.90;69.70;;;;;;4958773;28;20469;-86
2022/02/19 04:17:06;;;;;;;4.23;1.30;;;7.80;70.00;;;;;;4959065;28;20460;-86
2022/02/19 04:19:33;;;;;;;9.93;2.80;;;7.80;69.90;;;;;;4956848;28;20456;-86
2022/02/19 04:22:01;;;;;;;3.90;1.73;;;7.80;69.40;;;;;;4964295;28;20413;-84
2022/02/19 04:24:27;;;;;;;5.20;1.87;;;7.80;69.50;;;;;;4971994;28;20866;-86
2022/02/19 04:26:54;;;;;;;3.60;1.57;;;7.70;68.50;;;;;;4960398;28;20452;-86
2022/02/19 04:29:22;;;;;;;4.50;2.20;;;7.70;69.00;;;;;;4957702;28;20460;-86
2022/02/19 04:31:54;;;;;;;6.63;2.10;;;7.70;68.60;;;;;;4958363;28;20441;-86
2022/02/19 04:34:21;;;;;;;6.13;1.63;;;7.60;67.70;;;;;;4957403;28;20826;-86
2022/02/19 04:36:48;;;;;;;3.10;1.40;;;7.50;68.60;;;;;;4958471;28;20960;-86
2022/02/19 04:39:17;;;;;;;5.23;1.30;;;7.50;69.10;;;;;;4969683;28;20457;-85
2022/02/19 04:41:43;;;;;;;3.20;1.50;;;7.40;69.70;;;;;;4962978;28;20970;-86
2022/02/19 04:44:10;;;;;;;4.97;4.13;;;7.40;68.80;;;;;;4957203;28;20477;-85
2022/02/19 04:46:37;;;;;;;3.67;1.57;;;7.40;68.70;;;;;;4957706;29;20448;-86
2022/02/19 04:49:04;;;;;;;5.07;1.50;;;7.30;68.90;;;;;;4959949;29;20455;-86
2022/02/19 04:51:31;;;;;;;6.73;1.93;;;7.30;68.80;;;;;;4959535;28;20464;-85
2022/02/19 04:53:58;;;;;;;5.53;1.67;;;7.30;68.90;;;;;;4956914;28;20480;-85
2022/02/19 04:56:26;;;;;;;5.87;1.93;;;7.30;69.40;;;;;;4956566;28;20449;-86
2022/02/19 04:58:52;;;;;;;4.63;1.77;;;7.30;68.90;;;;;;4957031;28;20984;-85
2022/02/19 05:01:19;;;;;;;3.33;1.20;;;7.20;69.20;;;;;;4956701;28;20767;-85
2022/02/19 05:03:46;;;;;;;3.80;1.33;;;7.20;69.70;;;;;;4960680;28;20481;-85
2022/02/19 05:06:13;;;;;;;3.70;1.50;;;7.20;69.40;;;;;;4978519;29;20429;-85
2022/02/19 05:08:40;;;;;;;6.03;1.70;;;7.20;69.60;;;;;;4980105;28;20479;-85
2022/02/19 05:11:08;;;;;;;6.87;2.07;;;7.10;69.50;;;;;;4964049;29;20445;-86
2022/02/19 05:13:36;;;;;;;4.03;1.47;;;7.10;70.40;;;;;;4958061;28;20469;-86
2022/02/19 05:16:04;;;;;;;4.73;1.70;;;7.10;70.70;;;;;;4961331;28;20459;-86
2022/02/19 05:18:30;;;;;;;10.37;2.43;;;7.00;70.60;;;;;;4961305;28;20461;-85
2022/02/19 05:20:57;;;;;;;7.00;2.20;;;7.10;70.90;;;;;;4960891;28;20441;-86
2022/02/19 05:23:24;;;;;;;7.50;2.10;;;7.10;71.20;;;;;;4955646;28;20473;-86
2022/02/19 05:25:51;;;;;;;5.30;2.60;;;7.10;71.30;;;;;;4955864;29;20465;-86
2022/02/19 05:28:17;;;;;;;5.40;1.87;;;7.10;71.30;;;;;;4971938;28;20433;-84
2022/02/19 05:30:45;;;;;;;8.10;2.13;;;7.00;71.70;;;;;;4979335;28;20424;-86
2022/02/19 05:33:12;;;;;;;9.53;2.10;;;7.10;71.50;;;;;;4960498;28;20452;-85
2022/02/19 05:35:39;;;;;;;5.03;1.93;;;7.00;71.50;;;;;;4961155;28;20544;-86
2022/02/19 05:38:06;;;;;;;6.60;1.60;;;7.10;71.70;;;;;;4957493;29;20453;-86
2022/02/19 05:40:33;;;;;;;5.80;1.63;;;7.00;72.00;;;;;;4958032;28;20457;-86
2022/02/19 05:43:00;;;;;;;7.60;2.40;;;7.00;71.90;;;;;;4957727;28;20437;-86
2022/02/19 05:45:26;;;;;;;3.97;1.80;;;7.00;72.00;;;;;;4966730;29;20492;-86
2022/02/19 05:47:56;;;;;;;4.63;1.43;;;7.00;72.50;;;;;;4956807;29;20472;-86
2022/02/19 05:50:23;;;;;;;10.03;2.50;;;7.00;72.30;;;;;;4956434;29;20456;-86
2022/02/19 05:52:49;;;;;;;5.57;1.50;;;7.00;72.50;;;;;;4957137;28;20453;-85
2022/02/19 05:55:16;;;;;;;5.20;2.60;;;7.00;72.50;;;;;;4962489;28;20834;-85
2022/02/19 05:57:43;;;;;;;5.40;2.00;;;7.00;72.60;;;;;;4958825;29;20459;-86
2022/02/19 06:00:11;;;;;;;6.03;1.60;;;6.90;72.70;;;;;;4955995;28;20948;-86
2022/02/19 06:02:38;;;;;;;7.93;2.30;;;6.90;72.40;;;;;;4955096;29;20524;-86
2022/02/19 06:05:07;;;;;;;7.60;1.70;;;6.90;72.40;;;;;;4954539;28;20480;-86
2022/02/19 06:07:34;;;;;;;4.80;1.53;;;6.90;72.50;;;;;;4955216;28;20449;-86
2022/02/19 06:10:00;;;;;;;5.87;2.00;;;6.90;72.70;;;;;;4955520;28;20538;-86
2022/02/19 06:12:27;;;;;;;10.67;2.60;;;6.90;72.80;;;;;;4955948;28;20448;-86
2022/02/19 06:14:54;;;;;;;10.17;2.50;;;6.80;72.70;;;;;;4955243;28;20461;-86
2022/02/19 06:17:20;;;;;;;13.20;2.20;;;6.80;72.60;;;;;;4955177;28;20462;-86
2022/02/19 06:19:47;;;;;;;5.07;1.80;;;6.70;73.10;;;;;;4955683;28;20970;-86
2022/02/19 06:22:16;;;;;;;4.87;1.67;;;6.70;73.50;;;;;;4956031;28;20863;-86
2022/02/19 06:24:43;;;;;;;9.93;2.17;;;6.70;73.50;;;;;;4955103;28;20487;-87
2022/02/19 06:27:10;;;;;;;4.80;1.80;;;6.50;73.50;;;;;;4955481;28;20448;-87
2022/02/19 06:29:36;;;;;;;6.10;1.80;;;6.60;74.00;;;;;;4956123;29;20531;-86
2022/02/19 06:32:04;;;;;;;6.40;2.57;;;6.50;74.20;;;;;;4962410;28;20456;-85
2022/02/19 06:34:31;;;;;;;12.10;2.10;;;6.50;74.80;;;;;;4970414;28;20476;-86
2022/02/19 06:36:57;;;;;;;3.87;1.60;;;6.50;75.30;;;;;;4965174;28;20461;-86
2022/02/19 06:39:25;;;;;;;5.30;2.13;;;6.50;75.20;;;;;;4957412;29;20444;-86
2022/02/19 06:41:53;;;;;;;5.03;2.00;;;6.50;75.30;;;;;;4956036;28;20461;-86
2022/02/19 06:44:20;;;;;;;12.47;2.13;;;6.50;75.00;;;;;;4954799;28;20843;-87
2022/02/19 06:46:47;;;;;;;8.03;2.10;;;6.50;75.20;;;;;;4956389;28;20452;-86
2022/02/19 06:49:14;;;;;;;13.73;1.77;;;6.50;74.50;;;;;;4963789;29;20452;-87
2022/02/19 06:51:41;;;;;;;6.23;2.37;;;6.50;75.00;;;;;;4967991;29;20944;-86
2022/02/19 06:54:08;;;;;;;7.53;1.73;;;6.50;75.00;;;;;;4956235;28;20453;-86
2022/02/19 06:56:36;;;;;;;7.77;1.90;;;6.40;75.60;;;;;;4958697;29;20467;-86
2022/02/19 06:59:05;;;;;;;11.00;2.37;;;6.40;75.00;;;;;;4959079;29;20457;-87
2022/02/19 07:01:32;;;;;;;6.73;1.80;;;6.40;75.00;;;;;;4960476;29;20483;-86
2022/02/19 07:03:59;;;;;;;6.43;1.73;;;6.40;75.00;;;;;;4956686;28;20465;-86
2022/02/19 07:06:26;;;;;;;4.53;1.73;;;6.40;74.90;;;;;;4960279;29;20456;-85
2022/02/19 07:08:53;;;;;;;12.20;3.23;;;6.50;75.20;;;;;;4978627;28;20432;-86
2022/02/19 07:11:20;;;;;;;9.00;2.10;;;6.60;75.20;;;;;;4965055;28;20448;-87
2022/02/19 07:13:48;;;;;;;7.73;2.67;;;6.60;74.70;;;;;;4955436;28;20469;-87
2022/02/19 07:16:14;;;;;;;5.97;2.20;;;6.60;74.70;;;;;;4966022;28;20436;-86
2022/02/19 07:18:41;;;;;;;10.30;2.67;;;6.70;74.60;;;;;;4974237;28;20445;-86
2022/02/19 07:21:08;;;;;;;4.37;1.80;;;6.80;74.70;;;;;;4959713;29;20444;-86
2022/02/19 07:23:35;;;;;;;8.03;2.50;;;6.70;74.50;;;;;;4975980;28;20456;-85
2022/02/19 07:26:01;;;;;;;10.43;2.00;;;6.70;74.70;;;;;;4971659;29;20484;-87
2022/02/19 07:28:28;;;;;;;10.03;2.30;;;6.80;74.70;;;;;;4957647;29;20452;-86
2022/02/19 07:30:56;;;;;;;9.00;2.30;;;6.80;74.50;;;;;;4955184;29;20464;-86
2022/02/19 07:33:23;;;;;;;7.43;2.27;;;6.90;74.10;;;;;;4956364;28;20547;-86
2022/02/19 07:35:50;;;;;;;6.30;2.30;;;6.90;73.80;;;;;;4958569;28;20535;-86
2022/02/19 07:38:17;;;;;;;6.87;1.50;;;7.00;74.10;;;;;;4958218;28;20464;-86
2022/02/19 07:40:43;;;;;;;11.73;1.90;;;7.00;73.80;;;;;;4962752;28;20433;-86
2022/02/19 07:43:10;;;;;;;4.40;1.80;;;7.00;73.90;;;;;;4961241;28;20459;-88
2022/02/19 07:45:37;;;;;;;4.70;1.50;;;7.00;74.40;;;;;;4961573;28;20507;-86
2022/02/19 07:48:05;;;;;;;6.50;2.23;;;7.00;74.50;;;;;;4961969;28;20460;-85
2022/02/19 07:58:45;;;;;;;7.70;1.60;;;7.30;74.60;;;;;;4965251;29;20436;-85
2022/02/19 08:01:12;;;;;;;4.80;1.97;;;7.40;74.30;;;;;;4959619;28;20445;-86
2022/02/19 08:03:40;;;;;;;7.70;1.90;;;7.50;73.80;;;;;;4959239;28;21015;-84
2022/02/19 08:06:08;;;;;;;9.43;1.93;;;7.60;73.70;;;;;;4959603;28;20590;-86
2022/02/19 08:08:35;;;;;;;6.87;2.30;;;7.70;73.90;;;;;;4973325;28;20469;-85
2022/02/19 08:11:02;;;;;;;5.67;1.67;;;7.70;73.70;;;;;;4970091;28;20436;-86
2022/02/19 08:13:29;;;;;;;11.03;2.50;;;7.70;73.70;;;;;;4961346;28;20504;-86
2022/02/19 08:15:56;;;;;;;5.47;2.43;;;7.60;73.70;;;;;;4959957;29;20948;-86
2022/02/19 08:18:23;;;;;;;4.60;1.90;;;7.60;73.90;;;;;;4959270;28;20948;-88
2022/02/19 08:20:53;;;;;;;7.53;2.50;;;7.70;73.60;;;;;;4960902;28;20457;-86
2022/02/19 08:23:22;;;;;;;7.40;3.57;;;7.80;73.40;;;;;;4961359;28;20843;-86
2022/02/19 08:25:49;;;;;;;6.13;1.97;;;7.90;73.40;;;;;;4962697;29;20515;-86
2022/02/19 08:28:16;;;;;;;5.70;1.70;;;7.90;72.90;;;;;;4963984;29;20441;-86
2022/02/19 08:30:45;;;;;;;8.00;2.60;;;8.00;72.80;;;;;;4970639;28;20438;-85
2022/02/19 08:33:12;;;;;;;4.10;1.97;;;8.20;72.80;;;;;;4972993;28;20452;-86
2022/02/19 08:35:40;;;;;;;6.03;1.73;;;8.90;72.00;;;;;;4960949;28;20457;-87
2022/02/19 08:38:10;;;;;;;5.80;2.27;;;10.20;68.70;;;;;;4960574;28;20531;-86
2022/02/19 08:40:37;;;;;;;7.33;1.80;;;11.80;64.20;;;;;;4960656;28;20546;-87
2022/02/19 08:43:04;;;;;;;8.40;2.70;;;13.20;60.40;;;;;;4960295;28;20675;-87
2022/02/19 08:45:31;;;;;;;7.13;2.17;;;13.90;56.80;;;;;;4960828;29;20494;-86
2022/02/19 08:48:01;;;;;;;10.17;3.63;;;14.60;56.00;;;;;;4971631;28;20429;-86
2022/02/19 08:50:29;;;;;;;5.90;2.23;;;15.30;54.50;;;;;;4969825;28;20441;-85
2022/02/19 08:52:56;;;;;;;4.37;2.23;;;15.10;53.20;;;;;;4961131;29;20432;-86
2022/02/19 08:55:25;;;;;;;6.07;3.20;;;15.00;53.60;;;;;;4959492;28;20487;-86
2022/02/19 08:57:51;;;;;;;4.53;2.00;;;15.10;53.70;;;;;;4962875;28;20454;-85
2022/02/19 09:00:19;;;;;;;6.73;2.57;;;15.50;53.00;;;;;;4960770;29;20959;-86
2022/02/19 09:02:45;;;;;;;5.50;2.23;;;15.10;52.60;;;;;;4960485;28;20462;-86
2022/02/19 09:05:14;;;;;;;6.37;1.77;;;13.90;52.30;;;;;;4957982;28;20513;-87
2022/02/19 09:07:41;;;;;;;6.87;2.27;;;13.90;54.40;;;;;;4958880;28;20446;-86
2022/02/19 09:10:10;;;;;;;4.60;1.90;;;13.90;54.50;;;;;;4958727;28;20543;-86
2022/02/19 09:12:40;;;;;;;5.33;1.70;;;12.90;54.90;;;;;;4960879;28;20453;-86
2022/02/19 09:15:08;;;;;;;4.57;1.97;;;12.30;55.10;;;;;;4972487;28;20485;-85
2022/02/19 09:17:35;;;;;;;3.60;1.60;;;12.10;55.40;;;;;;4977680;29;20437;-86
2022/02/19 09:20:02;;;;;;;5.93;2.50;;;11.60;56.30;;;;;;4966665;28;20448;-86
2022/02/19 09:22:29;;;;;;;5.80;2.20;;;12.10;56.40;;;;;;4962664;28;20467;-88
2022/02/19 09:24:55;;;;;;;6.70;1.57;;;11.90;55.30;;;;;;4965764;28;20489;-86
2022/02/19 09:27:22;;;;;;;4.70;1.90;;;12.10;56.00;;;;;;4966194;28;20433;-86
2022/02/19 09:29:50;;;;;;;6.53;2.43;;;12.50;55.40;;;;;;4969068;28;20974;-87
2022/02/19 09:32:17;;;;;;;9.20;2.20;;;12.70;55.00;;;;;;4960619;28;20449;-87
2022/02/19 09:34:43;;;;;;;5.97;1.60;;;12.40;54.80;;;;;;4969646;28;20465;-87
2022/02/19 09:37:10;;;;;;;3.27;1.67;;;13.10;55.70;;;;;;4967991;28;20451;-86
2022/02/19 09:39:37;;;;;;;3.33;1.60;;;13.30;54.30;;;;;;4962868;29;20447;-87
2022/02/19 09:42:04;;;;;;;4.20;1.43;;;12.80;53.00;;;;;;4959783;29;20440;-87
2022/02/19 09:44:31;;;;;;;4.80;1.40;;;11.50;53.70;;;;;;4959782;28;20463;-87
2022/02/19 09:46:59;;;;;;;2.57;1.43;;;11.30;54.80;;;;;;4959571;29;20484;-87
2022/02/19 09:49:27;;;;;;;3.83;1.67;;;11.60;54.50;;;;;;4959736;29;20456;-87
2022/02/19 09:51:55;;;;;;;3.93;1.60;;;11.70;55.30;;;;;;4961195;29;20964;-87
2022/02/19 09:54:22;;;;;;;4.67;1.93;;;12.70;55.40;;;;;;4958897;28;20512;-87
2022/02/19 09:56:50;;;;;;;7.37;1.70;;;13.70;53.50;;;;;;4958420;29;20524;-88
2022/02/19 09:59:17;;;;;;;5.77;1.70;;;14.20;52.00;;;;;;4960745;28;20533;-86
2022/02/19 10:01:45;;;;;;;5.27;1.90;;;15.00;51.30;;;;;;4958472;28;20460;-86
2022/02/19 10:04:14;;;;;;;3.30;1.60;;;14.90;50.50;;;;;;4957952;28;20486;-86
2022/02/19 10:06:40;;;;;;;6.03;2.07;;;15.10;49.70;;;;;;4961724;28;20499;-86
2022/02/19 10:09:12;;;;;;;5.70;1.77;;;14.90;49.40;;;;;;4962179;28;20848;-86
2022/02/19 10:11:39;;;;;;;5.73;1.87;;;15.00;49.80;;;;;;4960403;29;20460;-87
2022/02/19 10:14:23;;;;;;;3.47;1.53;;;15.40;49.90;;;;;;4963193;28;20478;-85
2022/02/19 10:17:11;;;;;;;6.90;2.20;;;15.10;48.90;;;;;;4976205;29;20445;-87
2022/02/19 10:19:57;;;;;;;6.60;1.67;;;15.40;49.00;;;;;;4966413;29;20441;-87
2022/02/19 10:22:26;;;;;;;5.10;1.40;;;16.20;48.80;;;;;;4962061;29;20459;-87
2022/02/19 10:24:55;;;;;;;6.90;1.40;;;17.50;47.50;;;;;;4969535;28;20509;-86
2022/02/19 10:27:22;;;;;;;4.90;1.70;;;16.60;46.50;;;;;;4974804;28;20452;-87
2022/02/19 10:29:54;;;;;;;2.83;1.17;;;16.40;46.10;;;;;;4968839;28;20447;-86
2022/02/19 10:32:22;;;;;;;2.90;1.33;;;14.90;47.10;;;;;;4959155;28;20450;-87
2022/02/19 10:35:05;;;;;;;3.50;1.73;;;14.80;47.90;;;;;;4966091;28;20477;-87
2022/02/19 10:37:43;;;;;;;6.93;1.83;;;15.60;48.20;;;;;;4961764;29;20450;-87
2022/02/19 10:40:30;;;;;;;3.40;1.37;;;15.80;46.70;;;;;;4961328;29;20454;-88
2022/02/19 10:42:58;;;;;;;5.90;2.00;;;16.90;46.70;;;;;;4960170;29;20968;-87
2022/02/19 10:45:25;;;;;;;3.50;1.47;;;17.40;44.80;;;;;;4958753;29;20491;-87
2022/02/19 10:47:54;;;;;;;4.43;1.97;;;18.70;44.10;;;;;;4958563;28;20457;-88
2022/02/19 10:50:23;;;;;;;5.23;2.13;;;20.40;43.30;;;;;;4959068;28;20453;-86
2022/02/19 10:52:54;;;;;;;6.30;2.20;;;21.10;41.30;;;;;;4959283;28;20481;-88
2022/02/19 10:55:23;;;;;;;5.47;3.50;;;21.20;39.90;;;;;;4958213;28;20996;-88
2022/02/19 10:57:52;;;;;;;7.70;2.17;;;20.80;40.10;;;;;;4959910;28;20971;-88
2022/02/19 11:00:21;;;;;;;4.30;2.17;;;19.60;40.90;;;;;;4959613;28;20453;-88
2022/02/19 11:02:49;;;;;;;4.77;1.60;;;18.90;40.50;;;;;;4959669;28;20901;-88
2022/02/19 11:05:17;;;;;;;8.00;3.07;;;16.90;41.00;;;;;;4957724;28;20991;-87
2022/02/19 11:07:47;;;;;;;3.60;1.97;;;15.10;43.40;;;;;;4959023;29;20455;-88
2022/02/19 11:10:15;;;;;;;7.53;2.37;;;14.40;45.80;;;;;;4965733;28;20927;-87
2022/02/19 11:12:43;;;;;;;4.87;1.40;;;14.30;46.00;;;;;;4971527;28;20510;-86
2022/02/19 11:15:11;;;;;;;12.80;2.20;;;14.20;46.10;;;;;;4972187;28;20489;-87
2022/02/19 11:17:38;;;;;;;6.30;1.83;;;15.10;47.10;;;;;;4973222;28;20454;-89
2022/02/19 11:20:07;;;;;;;2.20;1.50;;;15.40;46.20;;;;;;4966742;28;20461;-87
2022/02/19 11:22:36;;;;;;;7.07;2.57;;;15.30;46.00;;;;;;4961923;28;20459;-87
2022/02/19 11:25:07;;;;;;;4.40;2.13;;;15.00;46.70;;;;;;4973642;28;20488;-88
2022/02/19 11:27:37;;;;;;;6.33;2.97;;;16.30;47.00;;;;;;4974494;29;20480;-87
2022/02/19 11:30:07;;;;;;;7.30;3.40;;;18.00;44.70;;;;;;4962848;29;20445;-86
2022/02/19 11:32:38;;;;;;;4.40;2.70;;;19.30;42.00;;;;;;4960279;28;20453;-87
2022/02/19 11:35:06;;;;;;;3.87;1.83;;;20.80;40.70;;;;;;4974486;28;20500;-86
2022/02/19 11:37:42;;;;;;;4.60;1.70;;;21.30;39.40;;;;;;4979834;28;20446;-87
2022/02/19 11:40:13;;;;;;;8.73;4.60;;;20.60;38.40;;;;;;4960325;29;20464;-87
2022/02/19 11:42:44;;;;;;;5.90;3.10;;;20.40;39.10;;;;;;4959319;28;20460;-88
2022/02/19 11:45:22;;;;;;;6.40;3.10;;;20.20;38.90;;;;;;4959040;28;20485;-87
2022/02/19 11:47:51;;;;;;;4.33;1.70;;;19.00;39.70;;;;;;4959128;29;20450;-87
2022/02/19 11:50:20;;;;;;;9.83;4.30;;;17.60;41.60;;;;;;4963502;29;20444;-89
2022/02/19 11:53:12;;;;;;;5.43;1.70;;;17.90;42.20;;;;;;4969035;28;20467;-89
2022/02/19 11:55:42;;;;;;;5.23;2.43;;;18.90;41.70;;;;;;4969139;29;20464;-87
2022/02/19 11:58:12;;;;;;;5.30;2.50;;;18.30;40.40;;;;;;4969888;28;20473;-88
2022/02/19 12:00:46;;;;;;;4.97;1.90;;;17.20;41.70;;;;;;4981246;28;20443;-85
2022/02/19 12:03:18;;;;;;;5.17;1.57;;;15.70;42.90;;;;;;4970800;28;20439;-88
2022/02/19 12:06:23;;;;;;;3.50;2.03;;;15.70;44.20;;;;;;4973082;28;20490;-86
2022/02/19 12:09:14;;;;;;;4.77;1.87;;;15.10;45.40;;;;;;4956659;28;20456;-88
2022/02/19 12:12:03;;;;;;;4.20;2.43;;;14.90;45.70;;;;;;4967294;29;20459;-89
2022/02/19 12:14:53;;;;;;;4.43;2.27;;;15.50;44.60;;;;;;4970513;28;20474;-87
2022/02/19 12:17:21;;;;;;;5.23;2.67;;;15.20;44.40;;;;;;4969316;29;20523;-87
2022/02/19 12:19:57;;;;;;;3.43;1.90;;;14.70;44.50;;;;;;4968713;28;20443;-87
2022/02/19 12:22:36;;;;;;;6.50;2.50;;;17.00;44.40;;;;;;4968071;28;20472;-88
2022/02/19 12:25:05;;;;;;;8.23;2.83;;;19.50;41.90;;;;;;4970613;28;20492;-85
2022/02/19 12:27:34;;;;;;;4.40;2.57;;;20.30;39.50;;;;;;4976809;28;20546;-87
2022/02/19 12:30:18;;;;;;;6.40;2.40;;;19.60;38.20;;;;;;4967042;28;20453;-89
2022/02/19 12:32:50;;;;;;;3.77;2.40;;;18.10;39.00;;;;;;4962338;28;20481;-90
2022/02/19 12:35:17;;;;;;;8.73;3.40;;;17.90;40.80;;;;;;4968210;28;20477;-88
2022/02/19 12:37:44;;;;;;;3.77;2.23;;;18.80;39.70;;;;;;4967520;28;20450;-88
2022/02/19 12:40:17;;;;;;;3.17;1.40;;;19.50;39.60;;;;;;4968979;28;20495;-88
2022/02/19 12:42:50;;;;;;;5.27;2.10;;;19.20;38.50;;;;;;4969697;29;20453;-88
2022/02/19 12:45:18;;;;;;;3.57;2.13;;;18.80;38.40;;;;;;4970658;28;20469;-87
2022/02/19 12:47:46;;;;;;;3.30;1.60;;;18.70;39.40;;;;;;4970616;28;20488;-87
2022/02/19 12:50:15;;;;;;;5.30;1.97;;;18.80;38.80;;;;;;4972830;28;20454;-85
2022/02/19 12:52:42;;;;;;;4.53;2.83;;;18.90;38.80;;;;;;4975938;28;20441;-87
2022/02/19 12:55:11;;;;;;;5.07;2.30;;;19.10;39.00;;;;;;4976409;28;20539;-87
2022/02/19 12:57:38;;;;;;;4.17;2.73;;;19.50;38.90;;;;;;4974851;29;20449;-88
2022/02/19 13:00:08;;;;;;;5.97;2.50;;;19.10;38.20;;;;;;4973890;28;20533;-87
2022/02/19 13:02:35;;;;;;;3.40;2.20;;;18.30;38.60;;;;;;4974619;29;20481;-87
2022/02/19 13:05:07;;;;;;;3.37;1.53;;;17.00;38.60;;;;;;4976280;28;20459;-87
2022/02/19 13:07:34;;;;;;;4.27;1.90;;;17.10;40.60;;;;;;4977866;28;20492;-86